Terminal Aerodrome Forecast
Issued by NWS Los Angeles, CA

Home | Current Version | Previous Version | Text Only | Print | Product List | Glossary On
Versions: 1 2 3 4 5 6 7 8 9 10 11 12 13 14 15 16 17 18 19 20 21 22 23 24 25 26
000
FTUS46 KLOX 012329
TAFSMX
TAF
KSMX 012329Z 0200/0224 30008KT P6SM VCSH SCT080 OVC150
     FM020500 VRB03KT 6SM BR SCT003 BKN150
     FM021800 31008KT P6SM SCT150=

USA.gov is the U.S. government's official web portal to all federal, state and local government web resources and services.